createdAt,value
2023-05-06T00:00:07.089Z,706.3846
2023-05-06T00:01:10.139Z,706.6923
2023-05-06T00:02:12.999Z,708.6154
2023-05-06T00:03:15.982Z,713.3077
2023-05-06T00:04:18.934Z,713.1539
2023-05-06T00:05:21.968Z,697.6923
2023-05-06T00:06:24.818Z,675.3077
2023-05-06T00:07:27.777Z,668.3846
2023-05-06T00:08:30.703Z,665.4615
2023-05-06T00:09:33.695Z,663.6923
2023-05-06T00:10:36.606Z,667.1539
2023-05-06T00:11:39.573Z,683.0000
2023-05-06T00:12:42.506Z,725.6154
2023-05-06T00:13:45.469Z,761.4615
2023-05-06T00:14:48.495Z,755.2308
2023-05-06T00:15:51.424Z,743.9231
2023-05-06T00:16:54.346Z,727.7692
2023-05-06T00:17:57.484Z,716.8461
2023-05-06T00:19:00.387Z,709.1539
2023-05-06T00:20:03.204Z,706.2308
2023-05-06T00:21:06.165Z,709.7692
2023-05-06T00:22:09.089Z,718.3077
2023-05-06T00:23:12.053Z,726.2308
2023-05-06T00:24:15.037Z,716.1539
2023-05-06T00:25:17.969Z,693.7692
2023-05-06T00:26:20.896Z,692.0000
2023-05-06T00:27:23.845Z,702.2308
2023-05-06T00:28:26.800Z,715.3846
2023-05-06T00:29:29.742Z,731.7692
2023-05-06T00:30:32.736Z,731.1539
2023-05-06T00:31:35.771Z,729.4615
2023-05-06T00:32:38.659Z,722.9231
2023-05-06T00:33:41.584Z,719.9231
2023-05-06T00:34:44.661Z,723.0000
2023-05-06T00:35:47.546Z,724.9231
2023-05-06T00:36:50.410Z,731.0769
2023-05-06T00:37:53.386Z,737.0000
2023-05-06T00:38:56.376Z,737.5385
2023-05-06T00:39:59.346Z,734.3077
2023-05-06T00:41:02.229Z,729.3846
2023-05-06T00:42:05.176Z,719.2308
2023-05-06T00:43:08.126Z,709.9231
2023-05-06T00:44:11.077Z,699.8461
2023-05-06T00:45:14.024Z,693.5385
2023-05-06T00:46:17.070Z,693.0000
2023-05-06T00:47:19.947Z,691.7692
2023-05-06T00:48:23.015Z,695.5385
2023-05-06T00:49:25.820Z,696.0000
2023-05-06T00:50:28.785Z,703.0000
2023-05-06T00:51:31.750Z,711.3077
2023-05-06T00:52:34.714Z,723.0769
2023-05-06T00:53:37.649Z,728.4615
2023-05-06T00:54:40.604Z,734.6923
2023-05-06T00:55:43.605Z,740.4615
2023-05-06T00:56:46.533Z,748.2308
2023-05-06T00:57:49.447Z,751.6154
2023-05-06T00:58:52.393Z,751.2308
2023-05-06T00:59:55.349Z,745.5385
2023-05-06T01:00:58.303Z,747.0769
2023-05-06T01:02:01.376Z,747.5385
2023-05-06T01:03:04.335Z,742.6923
2023-05-06T01:04:07.196Z,737.6154
2023-05-06T01:05:10.379Z,731.6154
2023-05-06T01:06:13.052Z,727.1539
2023-05-06T01:07:16.013Z,727.3077
2023-05-06T01:08:19.168Z,731.3077
2023-05-06T01:09:21.936Z,732.7692
2023-05-06T01:10:24.879Z,732.9231
2023-05-06T01:11:27.820Z,723.6154
2023-05-06T01:12:30.766Z,715.5385
2023-05-06T01:13:33.721Z,712.5385
2023-05-06T01:14:36.660Z,708.5385
2023-05-06T01:15:39.621Z,706.7692
2023-05-06T01:16:42.617Z,706.1539
2023-05-06T01:17:45.521Z,712.0769
2023-05-06T01:18:48.450Z,717.8461
2023-05-06T01:19:51.446Z,721.3077
2023-05-06T01:20:54.382Z,724.2308
2023-05-06T01:21:57.364Z,723.4615
2023-05-06T01:23:00.305Z,722.0769
2023-05-06T01:24:03.206Z,718.5385
2023-05-06T01:25:06.203Z,720.1539
2023-05-06T01:26:09.099Z,718.6154
2023-05-06T01:27:12.060Z,717.7692
2023-05-06T01:28:15.005Z,725.1539
2023-05-06T01:29:17.909Z,731.0000
2023-05-06T01:30:20.859Z,734.6154
2023-05-06T01:31:23.837Z,735.7692
2023-05-06T01:32:26.768Z,739.0000
2023-05-06T01:33:29.691Z,736.9231
2023-05-06T01:34:32.644Z,736.0000
2023-05-06T01:35:35.591Z,737.0000
2023-05-06T01:36:38.531Z,740.7692
2023-05-06T01:37:41.581Z,732.6923
2023-05-06T01:38:44.413Z,728.9231
2023-05-06T01:39:47.392Z,727.4615
2023-05-06T01:40:50.304Z,723.8461
2023-05-06T01:41:53.253Z,715.8461
2023-05-06T01:42:56.207Z,714.3077
2023-05-06T01:43:59.156Z,714.4615
2023-05-06T01:45:02.137Z,719.5385
2023-05-06T01:46:05.044Z,728.6154
2023-05-06T01:47:07.998Z,738.6923
2023-05-06T01:48:10.930Z,740.0000
2023-05-06T01:49:13.869Z,732.6154
2023-05-06T01:50:16.844Z,723.7692
2023-05-06T01:51:19.764Z,718.0000
2023-05-06T01:52:22.704Z,718.1539
2023-05-06T01:53:25.706Z,722.5385
2023-05-06T01:54:28.565Z,728.9231
2023-05-06T01:55:31.583Z,724.7692
2023-05-06T01:56:34.453Z,731.3077
2023-05-06T01:57:37.403Z,731.1539
2023-05-06T01:58:40.358Z,734.8461
2023-05-06T01:59:43.288Z,740.6154
2023-05-06T02:00:46.252Z,741.3077
2023-05-06T02:01:49.209Z,740.3077
2023-05-06T02:02:52.241Z,742.3077
2023-05-06T02:03:55.120Z,742.9231
2023-05-06T02:04:58.038Z,737.2308
2023-05-06T02:06:01.033Z,734.1539
2023-05-06T02:07:03.888Z,739.9231
2023-05-06T02:08:06.822Z,741.9231
2023-05-06T02:09:09.836Z,739.9231
2023-05-06T02:10:12.744Z,735.0769
2023-05-06T02:11:15.661Z,735.0000
2023-05-06T02:12:18.628Z,750.3846
2023-05-06T02:13:21.600Z,800.1539
2023-05-06T02:14:24.498Z,803.6923
2023-05-06T02:15:27.565Z,785.6923
2023-05-06T02:16:30.394Z,772.0000
2023-05-06T02:17:33.381Z,765.5385
2023-05-06T02:18:36.312Z,766.7692
2023-05-06T02:19:39.204Z,781.3077
2023-05-06T02:20:42.165Z,817.3077
2023-05-06T02:21:45.101Z,835.6154
2023-05-06T02:22:48.111Z,829.6923
2023-05-06T02:23:51.041Z,812.5385
2023-05-06T02:24:53.993Z,792.3077
2023-05-06T02:25:56.864Z,785.7692
2023-05-06T02:26:59.815Z,782.0000
2023-05-06T02:28:02.762Z,783.3077
2023-05-06T02:29:05.711Z,786.4615
2023-05-06T02:30:08.648Z,793.9231
2023-05-06T02:31:11.620Z,796.1539
2023-05-06T02:32:14.576Z,795.6923
2023-05-06T02:33:17.510Z,790.3077
2023-05-06T02:34:20.439Z,785.3846
2023-05-06T02:35:23.397Z,777.6923
2023-05-06T02:36:26.344Z,782.3077
2023-05-06T02:37:29.262Z,780.3846
2023-05-06T02:38:32.216Z,774.6923
2023-05-06T02:39:35.214Z,763.1539
2023-05-06T02:40:38.157Z,752.0000
2023-05-06T02:41:41.073Z,747.0769
2023-05-06T02:42:44.031Z,737.7692
2023-05-06T02:43:46.933Z,730.0000
2023-05-06T02:44:49.871Z,722.9231
2023-05-06T02:45:52.828Z,717.9231
2023-05-06T02:46:55.764Z,720.0000
2023-05-06T02:47:58.762Z,722.2308
2023-05-06T02:49:01.644Z,719.5385
2023-05-06T02:50:04.591Z,718.9231
2023-05-06T02:51:07.562Z,718.6154
2023-05-06T02:52:10.475Z,718.8461
2023-05-06T02:53:13.453Z,725.9231
2023-05-06T02:54:16.345Z,730.1539
2023-05-06T02:55:19.305Z,732.0000
2023-05-06T02:56:22.314Z,734.0769
2023-05-06T02:57:25.178Z,733.7692
2023-05-06T02:58:28.151Z,737.1539
2023-05-06T02:59:31.071Z,735.0000
2023-05-06T03:00:34.120Z,727.3846
2023-05-06T03:01:37.104Z,721.0769
2023-05-06T03:02:39.913Z,718.1539
2023-05-06T03:03:42.834Z,718.0769
2023-05-06T03:04:45.769Z,716.6923
2023-05-06T03:05:48.730Z,721.0769
2023-05-06T03:06:51.660Z,726.8461
2023-05-06T03:07:54.618Z,730.0000
2023-05-06T03:08:57.538Z,732.7692
2023-05-06T03:10:00.519Z,734.3846
2023-05-06T03:11:03.437Z,731.7692
2023-05-06T03:12:06.394Z,732.9231
2023-05-06T03:13:09.560Z,735.6154
2023-05-06T03:14:12.262Z,766.1539
2023-05-06T03:15:15.257Z,789.5385
2023-05-06T03:16:18.185Z,786.3846
2023-05-06T03:17:21.087Z,776.4615
2023-05-06T03:18:24.052Z,764.2308
2023-05-06T03:19:26.958Z,760.8461
2023-05-06T03:20:29.910Z,755.8461
2023-05-06T03:21:32.873Z,752.8461
2023-05-06T03:22:35.871Z,748.7692
2023-05-06T03:23:38.753Z,751.3077
2023-05-06T03:24:41.689Z,751.0769
2023-05-06T03:25:44.629Z,736.5385
2023-05-06T03:26:47.584Z,722.0000
2023-05-06T03:27:50.525Z,716.6154
2023-05-06T03:28:53.497Z,711.5385
2023-05-06T03:29:56.396Z,710.1539
2023-05-06T03:30:59.430Z,717.4615
2023-05-06T03:32:02.383Z,721.1539
2023-05-06T03:33:05.403Z,732.5385
2023-05-06T03:34:08.249Z,777.1539
2023-05-06T03:35:11.498Z,811.8461
2023-05-06T03:36:14.141Z,823.7692
2023-05-06T03:37:17.071Z,824.8461
2023-05-06T03:38:20.018Z,819.5385
2023-05-06T03:39:22.989Z,808.5385
2023-05-06T03:40:25.890Z,790.0000
2023-05-06T03:41:28.855Z,774.9231
2023-05-06T03:42:31.784Z,769.3077
2023-05-06T03:43:34.850Z,769.8461
2023-05-06T03:44:37.677Z,766.3846
2023-05-06T03:45:40.606Z,772.5385
2023-05-06T03:46:43.667Z,775.2308
2023-05-06T03:47:46.826Z,767.7692
2023-05-06T03:48:49.416Z,763.9231
2023-05-06T03:49:52.391Z,760.1539
2023-05-06T03:50:55.293Z,758.6923
2023-05-06T03:51:58.242Z,760.3846
2023-05-06T03:53:01.178Z,759.4615
2023-05-06T03:54:04.113Z,759.8461
2023-05-06T03:55:07.230Z,765.8461
2023-05-06T03:56:10.017Z,768.4615
2023-05-06T03:57:12.940Z,769.0769
2023-05-06T03:58:15.878Z,768.6923
2023-05-06T03:59:18.893Z,764.0769
2023-05-06T04:00:21.786Z,756.6923
2023-05-06T04:01:24.700Z,757.1539
2023-05-06T04:02:27.705Z,767.4615
2023-05-06T04:03:30.692Z,768.2308
2023-05-06T04:04:33.529Z,764.6154
2023-05-06T04:05:36.632Z,758.6154
2023-05-06T04:06:39.434Z,758.6154
2023-05-06T04:07:42.379Z,759.3846
2023-05-06T04:08:45.344Z,755.2308
2023-05-06T04:09:48.238Z,751.3846
2023-05-06T04:10:51.245Z,755.6923
2023-05-06T04:11:54.112Z,754.3077
2023-05-06T04:12:57.109Z,768.0769
2023-05-06T04:14:00.081Z,783.0000
2023-05-06T04:15:03.030Z,789.8461
2023-05-06T04:16:05.933Z,789.6154
2023-05-06T04:17:08.870Z,789.2308
2023-05-06T04:18:11.798Z,790.9231
2023-05-06T04:19:14.884Z,796.8461
2023-05-06T04:20:17.682Z,796.6154
2023-05-06T04:21:20.654Z,791.3077
2023-05-06T04:22:23.595Z,775.6923
2023-05-06T04:23:26.572Z,761.9231
2023-05-06T04:24:29.469Z,759.2308
2023-05-06T04:25:32.408Z,748.8461
2023-05-06T04:26:35.332Z,744.3846
2023-05-06T04:27:38.296Z,736.0769
2023-05-06T04:28:41.226Z,714.7692
2023-05-06T04:29:44.213Z,705.2308
2023-05-06T04:30:47.182Z,705.0769
2023-05-06T04:31:50.121Z,712.6923
2023-05-06T04:32:53.047Z,716.6154
2023-05-06T04:33:55.939Z,721.9231
2023-05-06T04:34:58.900Z,722.5385
2023-05-06T04:36:01.882Z,726.4615
2023-05-06T04:37:04.798Z,727.0000
2023-05-06T04:38:07.735Z,725.3077
2023-05-06T04:39:10.683Z,735.0000
2023-05-06T04:40:13.730Z,752.1539
2023-05-06T04:41:16.578Z,764.8461
2023-05-06T04:42:19.507Z,775.8461
2023-05-06T04:43:22.470Z,786.9231
2023-05-06T04:44:25.415Z,790.3077
2023-05-06T04:45:28.386Z,787.5385
2023-05-06T04:46:31.426Z,786.6923
2023-05-06T04:47:34.300Z,782.0769
2023-05-06T04:48:37.193Z,783.6154
2023-05-06T04:49:40.192Z,781.5385
2023-05-06T04:50:43.089Z,783.1539
2023-05-06T04:51:46.045Z,783.3846
2023-05-06T04:52:48.963Z,780.7692
2023-05-06T04:53:51.909Z,767.4615
2023-05-06T04:54:54.889Z,758.2308
2023-05-06T04:55:57.800Z,746.7692
2023-05-06T04:57:00.776Z,731.3846
2023-05-06T04:58:03.703Z,730.6154
2023-05-06T04:59:06.627Z,728.4615
2023-05-06T05:00:09.783Z,727.7692
2023-05-06T05:01:12.554Z,735.4615
2023-05-06T05:02:15.580Z,750.9231
2023-05-06T05:03:18.452Z,763.2308
2023-05-06T05:04:21.367Z,775.4615
2023-05-06T05:05:24.313Z,784.7692
2023-05-06T05:06:27.250Z,791.2308
2023-05-06T05:07:30.190Z,791.3077
2023-05-06T05:08:33.137Z,787.0000
2023-05-06T05:09:36.102Z,780.6923
2023-05-06T05:10:39.057Z,771.4615
2023-05-06T05:11:41.943Z,757.7692
2023-05-06T05:12:44.902Z,752.6923
2023-05-06T05:13:47.836Z,745.2308
2023-05-06T05:14:50.770Z,738.6923
2023-05-06T05:15:53.754Z,736.0000
2023-05-06T05:16:56.699Z,742.4615
2023-05-06T05:17:59.676Z,743.4615
2023-05-06T05:19:03.727Z,742.4615
2023-05-06T05:20:05.496Z,732.5385
2023-05-06T05:21:08.478Z,730.5385
2023-05-06T05:22:11.391Z,731.8461
2023-05-06T05:23:14.340Z,731.0000
2023-05-06T05:24:17.321Z,727.1539
2023-05-06T05:25:20.225Z,723.0000
2023-05-06T05:26:23.212Z,729.0000
2023-05-06T05:27:26.103Z,729.3846
2023-05-06T05:28:29.038Z,725.6923
2023-05-06T05:29:32.050Z,721.0000
2023-05-06T05:30:34.943Z,717.9231
2023-05-06T05:31:37.965Z,720.5385
2023-05-06T05:32:40.881Z,726.6923
2023-05-06T05:33:43.831Z,728.3077
2023-05-06T05:34:46.692Z,723.0000
2023-05-06T05:35:49.674Z,719.6923
2023-05-06T05:36:52.571Z,718.3077
2023-05-06T05:37:55.518Z,720.3077
2023-05-06T05:38:58.466Z,721.2308
2023-05-06T05:40:01.404Z,719.3077
2023-05-06T05:41:04.428Z,717.3846
2023-05-06T05:42:07.291Z,714.7692
2023-05-06T05:43:10.237Z,710.3846
2023-05-06T05:44:13.171Z,710.5385
2023-05-06T05:45:16.151Z,707.7692
2023-05-06T05:46:19.113Z,702.4615
2023-05-06T05:47:21.997Z,705.6154
2023-05-06T05:48:24.965Z,712.5385
2023-05-06T05:49:27.998Z,711.1539
2023-05-06T05:50:30.863Z,712.1539
2023-05-06T05:51:33.772Z,710.6923
2023-05-06T05:52:36.737Z,704.3846
2023-05-06T05:53:39.703Z,699.3846
2023-05-06T05:54:42.605Z,697.7692
2023-05-06T05:55:45.530Z,696.7692
2023-05-06T05:56:48.501Z,690.4615
2023-05-06T05:57:51.431Z,685.6154
2023-05-06T05:58:54.415Z,680.6923
2023-05-06T05:59:57.311Z,677.9231
2023-05-06T06:01:00.266Z,671.7692
2023-05-06T06:02:03.213Z,671.0000
2023-05-06T06:03:06.460Z,674.4615
2023-05-06T06:04:09.142Z,674.6154
2023-05-06T06:05:12.205Z,671.0769
2023-05-06T06:06:14.985Z,672.2308
2023-05-06T06:07:17.936Z,676.3846
2023-05-06T06:08:20.860Z,677.0769
2023-05-06T06:09:23.814Z,677.2308
2023-05-06T06:10:26.850Z,674.5385
2023-05-06T06:11:29.713Z,674.1539
2023-05-06T06:12:32.678Z,673.8461
2023-05-06T06:13:35.592Z,673.2308
2023-05-06T06:14:38.545Z,672.1539
2023-05-06T06:15:41.473Z,670.8461
2023-05-06T06:16:44.452Z,671.0000
2023-05-06T06:17:47.388Z,667.3846
2023-05-06T06:18:50.298Z,664.2308
2023-05-06T06:19:53.248Z,661.7692
2023-05-06T06:20:56.277Z,658.3077
2023-05-06T06:21:59.158Z,660.9231
2023-05-06T06:23:02.104Z,663.6154
2023-05-06T06:24:05.057Z,662.1539
2023-05-06T06:25:08.126Z,659.7692
2023-05-06T06:26:12.318Z,659.4615
2023-05-06T06:27:13.888Z,661.8461
2023-05-06T06:28:16.822Z,658.7692
2023-05-06T06:29:19.759Z,655.6154
2023-05-06T06:30:22.709Z,655.0769
2023-05-06T06:31:25.685Z,656.8461
2023-05-06T06:32:28.659Z,658.6154
2023-05-06T06:33:31.593Z,657.1539
2023-05-06T06:34:34.511Z,656.9231
2023-05-06T06:35:37.434Z,655.5385
2023-05-06T06:36:40.465Z,657.1539
2023-05-06T06:37:43.323Z,657.3077
2023-05-06T06:38:46.311Z,653.3846
2023-05-06T06:39:49.304Z,658.6154
2023-05-06T06:40:52.188Z,660.8461
2023-05-06T06:41:55.199Z,660.0000
2023-05-06T06:42:58.055Z,658.6923
2023-05-06T06:44:01.042Z,658.9231
2023-05-06T06:45:03.965Z,659.1539
2023-05-06T06:46:06.891Z,661.0769
2023-05-06T06:47:09.858Z,656.7692
2023-05-06T06:48:12.814Z,655.2308
2023-05-06T06:49:15.708Z,652.4615
2023-05-06T06:50:18.696Z,652.0000
2023-05-06T06:51:21.603Z,651.5385
2023-05-06T06:52:24.646Z,655.0000
2023-05-06T06:53:27.480Z,657.3846
2023-05-06T06:54:30.427Z,657.6923
2023-05-06T06:55:33.437Z,657.0000
2023-05-06T06:56:36.427Z,656.1539
2023-05-06T06:57:39.325Z,654.5385
2023-05-06T06:58:42.202Z,658.0769
2023-05-06T06:59:45.167Z,656.8461
2023-05-06T07:00:48.144Z,655.5385
2023-05-06T07:01:51.057Z,656.1539
2023-05-06T07:02:54.063Z,657.3846
2023-05-06T07:03:56.963Z,660.0000
2023-05-06T07:04:59.905Z,663.0000
2023-05-06T07:06:02.843Z,662.9231
2023-05-06T07:07:05.748Z,664.7692
2023-05-06T07:08:08.760Z,660.0769
2023-05-06T07:09:11.702Z,659.8461
2023-05-06T07:10:14.585Z,654.2308
2023-05-06T07:11:17.554Z,649.6923
2023-05-06T07:12:20.473Z,645.1539
2023-05-06T07:13:23.547Z,640.8461
2023-05-06T07:14:26.348Z,636.3077
2023-05-06T07:15:29.333Z,633.5385
2023-05-06T07:16:32.254Z,623.6923
2023-05-06T07:17:35.235Z,620.6154
2023-05-06T07:18:38.147Z,616.9231
2023-05-06T07:19:41.106Z,605.9231
2023-05-06T07:20:44.036Z,604.3077
2023-05-06T07:21:47.030Z,596.6923
2023-05-06T07:22:49.960Z,594.0769
2023-05-06T07:23:53.064Z,597.3077
2023-05-06T07:24:55.830Z,598.0769
2023-05-06T07:25:58.768Z,597.3077
2023-05-06T07:27:01.751Z,596.0769
2023-05-06T07:28:04.679Z,590.5385
2023-05-06T07:29:07.645Z,593.0769
2023-05-06T07:30:10.609Z,604.1539
2023-05-06T07:31:13.569Z,605.3077
2023-05-06T07:32:16.476Z,605.0000
2023-05-06T07:33:19.467Z,609.8461
2023-05-06T07:34:22.386Z,606.4615
2023-05-06T07:35:25.311Z,609.3077
2023-05-06T07:36:28.363Z,609.0769
2023-05-06T07:37:31.239Z,606.6923
2023-05-06T07:38:34.296Z,606.4615
2023-05-06T07:39:37.247Z,604.6154
2023-05-06T07:40:40.151Z,601.9231
2023-05-06T07:41:43.100Z,606.0000
2023-05-06T07:42:46.031Z,611.0000
2023-05-06T07:43:49.031Z,615.2308
2023-05-06T07:44:51.971Z,611.0000
2023-05-06T07:45:54.919Z,608.3846
2023-05-06T07:46:58.234Z,606.3846
2023-05-06T07:48:00.858Z,601.8461
2023-05-06T07:49:03.929Z,603.3846
2023-05-06T07:50:06.748Z,600.9231
2023-05-06T07:51:09.642Z,602.2308
2023-05-06T07:52:12.653Z,602.5385
2023-05-06T07:53:15.535Z,595.0769
2023-05-06T07:54:18.503Z,587.0769
2023-05-06T07:55:21.512Z,585.2308
2023-05-06T07:56:24.419Z,583.2308
2023-05-06T07:57:27.394Z,581.4615
2023-05-06T07:58:30.441Z,582.3846
2023-05-06T07:59:33.295Z,582.6923
2023-05-06T08:00:36.195Z,584.3846
2023-05-06T08:01:39.176Z,576.8461
2023-05-06T08:02:42.291Z,574.8461
2023-05-06T08:03:45.198Z,574.3077
2023-05-06T08:04:49.476Z,580.4615
2023-05-06T08:05:50.911Z,583.9231
2023-05-06T08:06:53.870Z,583.3846
2023-05-06T08:07:56.827Z,585.6923
2023-05-06T08:08:59.745Z,587.3077
2023-05-06T08:10:02.699Z,586.4615
2023-05-06T08:11:05.704Z,586.7692
2023-05-06T08:12:08.617Z,584.8461
2023-05-06T08:13:11.569Z,581.0000
2023-05-06T08:14:14.464Z,579.3846
2023-05-06T08:15:17.457Z,575.5385
2023-05-06T08:16:20.923Z,576.7692
2023-05-06T08:17:23.389Z,576.8461
2023-05-06T08:18:26.430Z,574.0769
2023-05-06T08:19:29.193Z,570.9231
2023-05-06T08:20:32.152Z,571.1539
2023-05-06T08:21:35.112Z,570.2308
2023-05-06T08:22:38.072Z,569.8461
2023-05-06T08:23:41.004Z,571.7692
2023-05-06T08:24:43.937Z,572.0000
2023-05-06T08:25:46.909Z,569.6923
2023-05-06T08:26:49.885Z,572.1539
2023-05-06T08:27:52.772Z,574.3846
2023-05-06T08:28:55.714Z,575.9231
2023-05-06T08:29:58.682Z,572.0769
2023-05-06T08:31:01.611Z,570.4615
2023-05-06T08:32:04.616Z,569.7692
2023-05-06T08:33:07.594Z,569.1539
2023-05-06T08:34:10.530Z,566.1539
2023-05-06T08:35:13.666Z,565.0769
2023-05-06T08:36:16.373Z,566.3846
2023-05-06T08:37:19.338Z,566.3846
2023-05-06T08:38:22.289Z,562.0769
2023-05-06T08:39:25.291Z,555.1539
2023-05-06T08:40:28.204Z,553.8461
2023-05-06T08:41:31.243Z,553.4615
2023-05-06T08:42:34.202Z,551.6923
2023-05-06T08:43:37.062Z,550.6923
2023-05-06T08:44:39.996Z,552.7692
2023-05-06T08:45:43.061Z,551.7692
2023-05-06T08:46:45.946Z,551.0769
2023-05-06T08:47:48.969Z,550.9231
2023-05-06T08:48:51.839Z,550.4615
2023-05-06T08:49:54.837Z,549.0000
2023-05-06T08:50:57.755Z,545.8461
2023-05-06T08:52:00.765Z,545.2308
2023-05-06T08:53:03.667Z,545.0769
2023-05-06T08:54:06.638Z,543.2308
2023-05-06T08:55:09.938Z,542.5385
2023-05-06T08:56:12.500Z,539.3077
2023-05-06T08:57:15.420Z,538.0769
2023-05-06T08:58:18.466Z,539.6154
2023-05-06T08:59:21.360Z,543.1539
2023-05-06T09:00:24.273Z,542.2308
2023-05-06T09:01:27.297Z,540.3846
2023-05-06T09:02:30.288Z,538.5385
2023-05-06T09:03:33.206Z,536.4615
2023-05-06T09:04:36.106Z,533.6923
2023-05-06T09:05:39.034Z,532.3077
2023-05-06T09:06:41.991Z,529.3077
2023-05-06T09:07:45.002Z,528.6923
2023-05-06T09:08:47.861Z,529.2308
2023-05-06T09:09:50.814Z,531.5385
2023-05-06T09:10:53.954Z,531.8461
2023-05-06T09:11:56.750Z,532.0000
2023-05-06T09:12:59.736Z,534.0769
2023-05-06T09:14:02.665Z,535.0000
2023-05-06T09:15:05.560Z,533.2308
2023-05-06T09:16:08.528Z,531.0769
2023-05-06T09:17:11.552Z,528.6154
2023-05-06T09:18:14.736Z,518.6154
2023-05-06T09:19:17.442Z,516.2308
2023-05-06T09:20:20.341Z,516.4615
2023-05-06T09:21:23.295Z,517.3077
2023-05-06T09:22:26.239Z,516.4615
2023-05-06T09:23:29.202Z,515.7692
2023-05-06T09:24:32.135Z,517.6154
2023-05-06T09:25:35.210Z,517.6154
2023-05-06T09:26:38.071Z,519.2308
2023-05-06T09:27:41.098Z,518.2308
2023-05-06T09:28:43.951Z,515.3077
2023-05-06T09:29:46.987Z,513.6923
2023-05-06T09:30:49.987Z,512.3077
2023-05-06T09:31:52.832Z,507.4615
2023-05-06T09:32:55.856Z,505.4615
2023-05-06T09:33:58.804Z,505.3077
2023-05-06T09:35:01.721Z,510.0000
2023-05-06T09:36:04.641Z,514.4615
2023-05-06T09:37:07.583Z,520.0000
2023-05-06T09:38:10.605Z,518.4615
2023-05-06T09:39:13.616Z,515.3077
2023-05-06T09:40:16.509Z,514.5385
2023-05-06T09:41:19.400Z,518.6923
2023-05-06T09:42:22.446Z,514.3846
2023-05-06T09:43:25.358Z,507.0769
2023-05-06T09:44:28.293Z,503.0769
2023-05-06T09:45:31.296Z,497.5385
2023-05-06T09:46:34.193Z,493.8462
2023-05-06T09:47:37.200Z,488.1538
2023-05-06T09:48:40.081Z,485.0000
2023-05-06T09:49:43.064Z,485.1538
2023-05-06T09:50:45.983Z,486.1538
2023-05-06T09:51:48.973Z,483.8462
2023-05-06T09:52:51.906Z,482.3077
2023-05-06T09:53:54.851Z,480.6923
2023-05-06T09:54:57.803Z,479.3077
2023-05-06T09:56:00.774Z,477.8462
2023-05-06T09:57:03.729Z,476.6154
2023-05-06T09:58:06.666Z,475.4615
2023-05-06T09:59:09.647Z,475.2308
2023-05-06T10:00:12.685Z,473.8462
2023-05-06T10:01:25.204Z,471.5385
2023-05-06T10:02:18.602Z,471.6154
2023-05-06T10:03:21.563Z,473.2308
2023-05-06T10:04:25.594Z,475.4615
2023-05-06T10:05:27.425Z,476.8462
2023-05-06T10:06:30.297Z,478.0000
2023-05-06T10:07:33.312Z,480.1538
2023-05-06T10:08:36.262Z,479.4615
2023-05-06T10:09:39.177Z,476.0000
2023-05-06T10:10:42.291Z,475.3077
2023-05-06T10:11:45.084Z,470.3846
2023-05-06T10:12:48.085Z,467.1538
2023-05-06T10:13:50.985Z,463.4615
2023-05-06T10:14:53.930Z,460.6923
2023-05-06T10:15:56.911Z,460.5385
2023-05-06T10:16:59.893Z,460.9231
2023-05-06T10:18:02.825Z,459.4615
2023-05-06T10:19:05.766Z,458.9231
2023-05-06T10:20:08.699Z,456.8462
2023-05-06T10:21:11.739Z,456.3077
2023-05-06T10:22:14.618Z,455.2308
2023-05-06T10:23:17.547Z,456.3077
2023-05-06T10:24:20.592Z,457.7692
2023-05-06T10:25:23.457Z,457.3077
2023-05-06T10:26:26.397Z,454.8462
2023-05-06T10:27:29.366Z,453.9231
2023-05-06T10:28:32.320Z,451.6923
2023-05-06T10:29:35.396Z,454.7692
2023-05-06T10:30:38.195Z,453.5385
2023-05-06T10:31:41.202Z,449.3846
2023-05-06T10:32:44.209Z,451.5385
2023-05-06T10:33:47.146Z,452.4615
2023-05-06T10:34:50.031Z,448.1538
2023-05-06T10:35:52.986Z,439.6154
2023-05-06T10:36:55.922Z,439.8462
2023-05-06T10:37:58.868Z,442.1538
2023-05-06T10:39:01.824Z,444.6923
2023-05-06T10:40:04.786Z,444.6923
2023-05-06T10:41:07.727Z,444.5385
2023-05-06T10:42:10.655Z,442.6154
2023-05-06T10:43:13.643Z,441.7692
2023-05-06T10:44:16.724Z,443.6923
2023-05-06T10:45:19.526Z,445.8462
2023-05-06T10:46:22.537Z,450.3077
2023-05-06T10:47:25.439Z,446.3077
2023-05-06T10:48:28.469Z,441.3846
2023-05-06T10:49:31.348Z,435.2308
2023-05-06T10:50:34.309Z,431.1538
2023-05-06T10:51:37.243Z,429.3846
2023-05-06T10:52:40.186Z,426.7692
2023-05-06T10:53:43.177Z,424.3846
2023-05-06T10:54:46.093Z,421.8462
2023-05-06T10:55:49.036Z,421.7692
2023-05-06T10:56:52.006Z,424.4615
2023-05-06T10:57:54.931Z,424.0769
2023-05-06T10:58:57.893Z,422.3846
2023-05-06T11:00:00.865Z,421.5385
2023-05-06T11:01:03.837Z,421.0000
2023-05-06T11:02:06.780Z,419.7692
2023-05-06T11:03:09.832Z,421.3846
2023-05-06T11:04:12.667Z,421.3077
2023-05-06T11:05:15.571Z,419.6154
2023-05-06T11:06:18.584Z,424.6923
2023-05-06T11:07:21.503Z,424.4615
2023-05-06T11:08:24.470Z,421.2308
2023-05-06T11:09:27.389Z,424.2308
2023-05-06T11:10:30.363Z,424.1538
2023-05-06T11:11:33.370Z,417.6154
2023-05-06T11:12:36.326Z,415.3846
2023-05-06T11:13:39.226Z,415.7692
2023-05-06T11:14:42.200Z,416.5385
2023-05-06T11:15:45.152Z,429.5385
2023-05-06T11:16:48.126Z,429.8462
2023-05-06T11:17:51.091Z,434.4615
2023-05-06T11:18:54.029Z,435.3077
2023-05-06T11:19:57.040Z,436.6923
2023-05-06T11:20:59.948Z,437.9231
2023-05-06T11:22:02.912Z,441.5385
2023-05-06T11:23:05.847Z,454.6923
2023-05-06T11:24:08.816Z,458.9231
2023-05-06T11:25:11.771Z,448.6154
2023-05-06T11:26:14.733Z,445.2308
2023-05-06T11:27:17.673Z,440.2308
2023-05-06T11:28:20.589Z,436.6923
2023-05-06T11:29:23.550Z,436.9231
2023-05-06T11:30:26.496Z,438.3077
2023-05-06T11:31:29.609Z,437.3077
2023-05-06T11:32:32.855Z,433.8462
2023-05-06T11:33:35.346Z,431.7692
2023-05-06T11:34:38.343Z,432.6923
2023-05-06T11:35:41.317Z,434.3846
2023-05-06T11:36:44.254Z,437.3077
2023-05-06T11:37:47.242Z,436.3846
2023-05-06T11:38:50.353Z,435.8462
2023-05-06T11:39:53.146Z,437.4615
2023-05-06T11:40:56.067Z,436.3846
2023-05-06T11:41:58.996Z,436.3846
2023-05-06T11:43:01.952Z,437.9231
2023-05-06T11:44:04.931Z,436.6923
2023-05-06T11:45:07.892Z,438.2308
2023-05-06T11:46:10.837Z,441.1538
2023-05-06T11:47:13.874Z,442.7692
2023-05-06T11:48:16.872Z,443.5385
2023-05-06T11:49:19.862Z,438.3846
2023-05-06T11:50:22.830Z,434.0769
2023-05-06T11:51:25.792Z,433.4615
2023-05-06T11:52:28.806Z,431.6923
2023-05-06T11:53:31.630Z,432.1538
2023-05-06T11:54:34.568Z,432.3077
2023-05-06T11:55:37.525Z,433.2308
2023-05-06T11:56:40.489Z,433.0000
2023-05-06T11:57:43.467Z,433.9231
2023-05-06T11:58:46.502Z,434.6154
2023-05-06T11:59:49.372Z,444.1538
2023-05-06T12:00:52.331Z,467.6154
2023-05-06T12:01:55.277Z,464.7692
2023-05-06T12:02:58.283Z,474.6154
2023-05-06T12:04:01.250Z,465.8462
2023-05-06T12:05:04.186Z,451.1538
2023-05-06T12:06:07.085Z,450.7692
2023-05-06T12:07:10.136Z,447.5385
2023-05-06T12:08:23.577Z,452.2308
2023-05-06T12:09:15.962Z,446.9231
2023-05-06T12:10:18.921Z,437.8462
2023-05-06T12:11:21.874Z,436.0769
2023-05-06T12:12:24.895Z,433.5385
2023-05-06T12:13:27.811Z,431.1538
2023-05-06T12:14:30.766Z,432.6923
2023-05-06T12:15:33.724Z,430.0000
2023-05-06T12:16:36.800Z,429.3846
2023-05-06T12:17:39.664Z,428.3846
2023-05-06T12:18:42.659Z,457.0000